Aurora, Illinois
Current Conditions -  °F | °C
As of 3:52 AM on Thursday 27 Nov 2014 (Local Time) from KARR Reporting Station
Haze Haze  
Wind Chill: -11°   Ceiling: 7500
Heat Index: -6°   Visibility: 4mi
Dew Point: -9°   Wind: 8mph
Humidity: 78%   Direction: 300°WNW
Pressure: 30.26"   Gusts: NA
Location:  41.76°N, 88.31°W
Report Text: KARR 270952Z AUTO 30007KT 4SM HZ BKN075 BKN085 OVC110 M06/M09 A3026 RMK AO2 SLP256 T10561089 $
Loading
Personal Weather Stations






























Interactive Weather Map New forecast layout! Learn more

10-Day Weather Forecast

Advertisements
Track Severe Weather on mobile